Airfield :
LOGIN :

Register | Disclaimer

   EN    FR    IT 

 










Legend :    VFR   Marginal VFR   IFR   Intensive IFR   Very Intensive IFR
Visi :
Ceiling :
>= 8 km
>= 3000ft
5 to 8 km
1000 to 3000 ft
1500m to 5 km
500 to 1000 ft
800 to 1500m
200 to 500 ft
< 800m
< 200 ft
Symbols :   Thunderstorms  Fog  Heavy snow  Heavy precipitations  Wind > 20 kt
SIGMETs :     Misc.  Thunderstorms  Icing  Turbulence  Mountain Waves  Volcanic Ashes







- Airport Elevation : 1768 ft


LEHC - Huesca Pirineos

CURRENT METAR :
  • 201830Z AUTO 10010G21KT 060V140 CAVOK 21/16 Q1018

EXPIRED METARs :
  • 201800Z AUTO 10011KT 060V130 CAVOK 22/15 Q1017
  • 201730Z AUTO 10011KT 070V140 CAVOK 23/15 Q1017
  • 201700Z 08009KT 9999 FEW040 23/15 Q1017
  • 201630Z 09007KT 050V120 9999 FEW040 24/15 Q1017
  • 201600Z 09009KT 050V120 9999 FEW040 24/14 Q1017

TAF TAF LEHC
Valid from the 20 at 15:00 until the 21 at 15:00 UTC


201400Z 2015/2115 09010KT 9999 FEW050 TX23/2113Z TN16/2105Z
PROB30
TEMPO 2015/2018 FEW040CB BKN045
PROB40
TEMPO 2100/2115 4000 TSRA FEW050CB BKN060
No reported NOTAMs for that airfield.



MET'MAP, your aeronautical weather chart ! - Copyright ORBIFLY December 2007 - Disclaimer

ORBIFLY MET'MAP TEAM :

Programming & Development : Alexandra Zaïnal
Concept & Development : Baudouin d'Aumeries
Co-Development & Prog : Marc-Olivier Méhu
Technical & hardware support : Manuel Goepfert

Contact : metmap@orbifly.com




SOURCES & CREDITS :

   NOAA